sensor_id;sensor_type;location;lat;lon;timestamp;P1;durP1;ratioP1;P2;durP2;ratioP2
57667;SDS011;43499;52.366;12.912;2023-02-15T00:01:04;55.38;;;22.40;;
57667;SDS011;43499;52.366;12.912;2023-02-15T00:02:09;51.88;;;22.23;;
57667;SDS011;43499;52.366;12.912;2023-02-15T00:03:10;56.58;;;23.65;;
57667;SDS011;43499;52.366;12.912;2023-02-15T00:04:14;51.30;;;22.92;;
57667;SDS011;43499;52.366;12.912;2023-02-15T00:05:17;56.05;;;23.65;;
57667;SDS011;43499;52.366;12.912;2023-02-15T00:06:18;56.78;;;21.95;;
57667;SDS011;43499;52.366;12.912;2023-02-15T00:07:19;61.13;;;25.10;;
57667;SDS011;43499;52.366;12.912;2023-02-15T00:08:20;56.35;;;24.55;;
57667;SDS011;43499;52.366;12.912;2023-02-15T00:09:21;53.05;;;24.48;;
57667;SDS011;43499;52.366;12.912;2023-02-15T00:10:22;61.40;;;24.25;;
57667;SDS011;43499;52.366;12.912;2023-02-15T00:11:24;53.28;;;23.00;;
57667;SDS011;43499;52.366;12.912;2023-02-15T00:12:40;52.08;;;21.13;;
57667;SDS011;43499;52.366;12.912;2023-02-15T00:13:42;51.28;;;22.38;;
57667;SDS011;43499;52.366;12.912;2023-02-15T00:14:43;57.47;;;23.35;;
57667;SDS011;43499;52.366;12.912;2023-02-15T00:15:44;57.08;;;24.52;;
57667;SDS011;43499;52.366;12.912;2023-02-15T00:16:46;52.60;;;22.60;;
57667;SDS011;43499;52.366;12.912;2023-02-15T00:17:48;49.58;;;21.30;;
57667;SDS011;43499;52.366;12.912;2023-02-15T00:18:51;49.00;;;22.05;;
57667;SDS011;43499;52.366;12.912;2023-02-15T00:19:52;48.63;;;22.40;;
57667;SDS011;43499;52.366;12.912;2023-02-15T00:20:53;50.97;;;21.75;;
57667;SDS011;43499;52.366;12.912;2023-02-15T00:21:54;51.97;;;20.98;;
57667;SDS011;43499;52.366;12.912;2023-02-15T00:22:56;56.90;;;21.15;;
57667;SDS011;43499;52.366;12.912;2023-02-15T00:23:57;49.25;;;21.85;;
57667;SDS011;43499;52.366;12.912;2023-02-15T00:24:59;50.50;;;22.35;;
57667;SDS011;43499;52.366;12.912;2023-02-15T00:26:04;54.05;;;23.08;;
57667;SDS011;43499;52.366;12.912;2023-02-15T00:27:06;53.88;;;21.80;;
57667;SDS011;43499;52.366;12.912;2023-02-15T00:28:07;52.88;;;21.85;;
57667;SDS011;43499;52.366;12.912;2023-02-15T00:29:09;47.33;;;22.10;;
57667;SDS011;43499;52.366;12.912;2023-02-15T00:30:12;46.95;;;21.10;;
57667;SDS011;43499;52.366;12.912;2023-02-15T00:31:13;51.95;;;21.48;;
57667;SDS011;43499;52.366;12.912;2023-02-15T00:32:14;45.40;;;20.60;;
57667;SDS011;43499;52.366;12.912;2023-02-15T00:33:15;47.38;;;19.75;;
57667;SDS011;43499;52.366;12.912;2023-02-15T00:34:21;42.10;;;20.88;;
57667;SDS011;43499;52.366;12.912;2023-02-15T00:35:23;44.50;;;20.63;;
57667;SDS011;43499;52.366;12.912;2023-02-15T00:36:24;50.70;;;20.55;;
57667;SDS011;43499;52.366;12.912;2023-02-15T00:37:25;49.10;;;20.73;;
57667;SDS011;43499;52.366;12.912;2023-02-15T00:38:27;52.05;;;21.90;;
57667;SDS011;43499;52.366;12.912;2023-02-15T00:39:30;55.50;;;22.58;;
57667;SDS011;43499;52.366;12.912;2023-02-15T00:40:31;53.90;;;21.73;;
57667;SDS011;43499;52.366;12.912;2023-02-15T00:41:32;56.97;;;22.70;;
57667;SDS011;43499;52.366;12.912;2023-02-15T00:42:33;55.35;;;22.95;;
57667;SDS011;43499;52.366;12.912;2023-02-15T00:43:35;65.65;;;23.70;;
57667;SDS011;43499;52.366;12.912;2023-02-15T00:44:36;60.42;;;24.05;;
57667;SDS011;43499;52.366;12.912;2023-02-15T00:45:38;64.45;;;25.50;;
57667;SDS011;43499;52.366;12.912;2023-02-15T00:46:39;66.00;;;24.27;;
57667;SDS011;43499;52.366;12.912;2023-02-15T00:47:43;61.15;;;23.48;;
57667;SDS011;43499;52.366;12.912;2023-02-15T00:48:44;60.38;;;23.00;;
57667;SDS011;43499;52.366;12.912;2023-02-15T00:49:45;59.58;;;25.05;;
57667;SDS011;43499;52.366;12.912;2023-02-15T00:50:48;63.53;;;23.55;;
57667;SDS011;43499;52.366;12.912;2023-02-15T00:51:51;59.72;;;25.17;;
57667;SDS011;43499;52.366;12.912;2023-02-15T00:52:52;56.80;;;24.33;;
57667;SDS011;43499;52.366;12.912;2023-02-15T00:53:54;61.85;;;23.35;;
57667;SDS011;43499;52.366;12.912;2023-02-15T00:57:36;47.45;;;20.70;;
57667;SDS011;43499;52.366;12.912;2023-02-15T01:01:11;45.83;;;20.33;;
57667;SDS011;43499;52.366;12.912;2023-02-15T01:03:15;50.00;;;19.85;;
57667;SDS011;43499;52.366;12.912;2023-02-15T01:04:17;58.20;;;23.83;;
57667;SDS011;43499;52.366;12.912;2023-02-15T01:05:18;47.38;;;20.73;;
57667;SDS011;43499;52.366;12.912;2023-02-15T01:06:19;57.13;;;21.92;;
57667;SDS011;43499;52.366;12.912;2023-02-15T01:07:21;50.97;;;20.52;;
57667;SDS011;43499;52.366;12.912;2023-02-15T01:08:22;56.70;;;21.77;;
57667;SDS011;43499;52.366;12.912;2023-02-15T01:09:23;51.63;;;20.83;;
57667;SDS011;43499;52.366;12.912;2023-02-15T01:13:09;46.78;;;21.17;;
57667;SDS011;43499;52.366;12.912;2023-02-15T01:14:22;45.58;;;18.48;;
57667;SDS011;43499;52.366;12.912;2023-02-15T01:18:33;43.30;;;19.73;;
57667;SDS011;43499;52.366;12.912;2023-02-15T01:19:38;49.85;;;19.98;;
57667;SDS011;43499;52.366;12.912;2023-02-15T01:20:41;55.92;;;21.98;;
57667;SDS011;43499;52.366;12.912;2023-02-15T01:21:50;58.28;;;22.15;;
57667;SDS011;43499;52.366;12.912;2023-02-15T01:23:38;56.50;;;23.40;;
57667;SDS011;43499;52.366;12.912;2023-02-15T01:24:23;81.18;;;22.33;;
57667;SDS011;43499;52.366;12.912;2023-02-15T01:25:25;54.40;;;21.45;;
57667;SDS011;43499;52.366;12.912;2023-02-15T01:26:26;54.65;;;21.48;;
57667;SDS011;43499;52.366;12.912;2023-02-15T01:27:27;55.10;;;23.42;;
57667;SDS011;43499;52.366;12.912;2023-02-15T01:28:31;53.17;;;23.60;;
57667;SDS011;43499;52.366;12.912;2023-02-15T01:29:32;60.08;;;21.27;;
57667;SDS011;43499;52.366;12.912;2023-02-15T01:30:33;67.82;;;24.05;;
57667;SDS011;43499;52.366;12.912;2023-02-15T01:31:34;63.33;;;23.73;;
57667;SDS011;43499;52.366;12.912;2023-02-15T01:32:35;61.10;;;23.85;;
57667;SDS011;43499;52.366;12.912;2023-02-15T01:33:37;61.45;;;22.35;;
57667;SDS011;43499;52.366;12.912;2023-02-15T01:34:38;57.67;;;23.00;;
57667;SDS011;43499;52.366;12.912;2023-02-15T01:35:39;54.60;;;23.05;;
57667;SDS011;43499;52.366;12.912;2023-02-15T01:36:40;56.83;;;23.15;;
57667;SDS011;43499;52.366;12.912;2023-02-15T01:37:42;61.90;;;24.05;;
57667;SDS011;43499;52.366;12.912;2023-02-15T01:38:43;62.45;;;24.63;;
57667;SDS011;43499;52.366;12.912;2023-02-15T01:39:44;63.70;;;25.77;;
57667;SDS011;43499;52.366;12.912;2023-02-15T01:40:45;56.60;;;23.35;;
57667;SDS011;43499;52.366;12.912;2023-02-15T01:41:46;52.95;;;23.25;;
57667;SDS011;43499;52.366;12.912;2023-02-15T01:42:51;54.03;;;23.20;;
57667;SDS011;43499;52.366;12.912;2023-02-15T01:43:54;50.95;;;22.95;;
57667;SDS011;43499;52.366;12.912;2023-02-15T01:44:58;56.95;;;25.33;;
57667;SDS011;43499;52.366;12.912;2023-02-15T01:46:01;63.75;;;23.63;;
57667;SDS011;43499;52.366;12.912;2023-02-15T01:47:02;58.55;;;24.60;;
57667;SDS011;43499;52.366;12.912;2023-02-15T01:49:11;54.30;;;22.85;;
57667;SDS011;43499;52.366;12.912;2023-02-15T01:50:34;55.05;;;23.13;;
57667;SDS011;43499;52.366;12.912;2023-02-15T01:51:38;52.95;;;21.10;;
57667;SDS011;43499;52.366;12.912;2023-02-15T01:52:44;54.53;;;21.80;;
57667;SDS011;43499;52.366;12.912;2023-02-15T01:53:52;53.65;;;22.70;;
57667;SDS011;43499;52.366;12.912;2023-02-15T01:54:58;56.53;;;21.90;;
57667;SDS011;43499;52.366;12.912;2023-02-15T01:56:02;54.13;;;22.15;;
57667;SDS011;43499;52.366;12.912;2023-02-15T01:57:08;51.47;;;21.85;;
57667;SDS011;43499;52.366;12.912;2023-02-15T01:58:11;56.03;;;23.08;;
57667;SDS011;43499;52.366;12.912;2023-02-15T01:59:14;56.50;;;22.40;;
57667;SDS011;43499;52.366;12.912;2023-02-15T02:00:20;54.17;;;21.90;;
57667;SDS011;43499;52.366;12.912;2023-02-15T02:01:22;49.38;;;21.58;;
57667;SDS011;43499;52.366;12.912;2023-02-15T02:02:25;49.92;;;20.35;;
57667;SDS011;43499;52.366;12.912;2023-02-15T02:03:35;54.10;;;21.42;;
57667;SDS011;43499;52.366;12.912;2023-02-15T02:04:45;43.88;;;19.80;;
57667;SDS011;43499;52.366;12.912;2023-02-15T02:05:52;46.03;;;20.35;;
57667;SDS011;43499;52.366;12.912;2023-02-15T02:06:53;48.50;;;20.38;;
57667;SDS011;43499;52.366;12.912;2023-02-15T02:07:57;47.10;;;20.58;;
57667;SDS011;43499;52.366;12.912;2023-02-15T02:09:00;51.60;;;21.77;;
57667;SDS011;43499;52.366;12.912;2023-02-15T02:10:01;52.97;;;22.20;;
57667;SDS011;43499;52.366;12.912;2023-02-15T02:11:10;50.85;;;21.17;;
57667;SDS011;43499;52.366;12.912;2023-02-15T02:12:12;52.33;;;21.77;;
57667;SDS011;43499;52.366;12.912;2023-02-15T02:13:14;50.72;;;21.98;;
57667;SDS011;43499;52.366;12.912;2023-02-15T02:14:15;54.30;;;20.42;;
57667;SDS011;43499;52.366;12.912;2023-02-15T02:15:17;58.33;;;22.88;;
57667;SDS011;43499;52.366;12.912;2023-02-15T02:16:20;58.13;;;22.60;;
57667;SDS011;43499;52.366;12.912;2023-02-15T02:18:55;59.63;;;22.13;;
57667;SDS011;43499;52.366;12.912;2023-02-15T02:20:30;55.13;;;19.92;;
57667;SDS011;43499;52.366;12.912;2023-02-15T02:24:51;54.70;;;22.55;;
57667;SDS011;43499;52.366;12.912;2023-02-15T02:26:12;53.03;;;20.63;;
57667;SDS011;43499;52.366;12.912;2023-02-15T02:27:41;48.50;;;21.17;;
57667;SDS011;43499;52.366;12.912;2023-02-15T02:29:15;55.95;;;20.63;;
57667;SDS011;43499;52.366;12.912;2023-02-15T02:30:49;41.08;;;19.83;;
57667;SDS011;43499;52.366;12.912;2023-02-15T02:32:15;49.33;;;19.83;;
57667;SDS011;43499;52.366;12.912;2023-02-15T02:33:45;51.75;;;21.27;;
57667;SDS011;43499;52.366;12.912;2023-02-15T02:36:40;52.42;;;21.27;;
57667;SDS011;43499;52.366;12.912;2023-02-15T02:38:06;63.35;;;23.15;;
57667;SDS011;43499;52.366;12.912;2023-02-15T02:39:33;61.65;;;21.65;;
57667;SDS011;43499;52.366;12.912;2023-02-15T02:42:25;58.78;;;23.52;;
57667;SDS011;43499;52.366;12.912;2023-02-15T02:43:35;70.60;;;23.90;;
57667;SDS011;43499;52.366;12.912;2023-02-15T02:44:52;71.13;;;22.83;;
57667;SDS011;43499;52.366;12.912;2023-02-15T02:46:02;59.75;;;22.40;;
57667;SDS011;43499;52.366;12.912;2023-02-15T02:47:30;68.38;;;22.60;;
57667;SDS011;43499;52.366;12.912;2023-02-15T02:48:37;66.35;;;24.90;;
57667;SDS011;43499;52.366;12.912;2023-02-15T02:49:40;64.07;;;24.05;;
57667;SDS011;43499;52.366;12.912;2023-02-15T02:50:43;69.82;;;23.98;;
57667;SDS011;43499;52.366;12.912;2023-02-15T02:51:44;77.68;;;25.60;;
57667;SDS011;43499;52.366;12.912;2023-02-15T02:52:46;69.30;;;25.08;;
57667;SDS011;43499;52.366;12.912;2023-02-15T02:53:50;83.85;;;26.58;;
57667;SDS011;43499;52.366;12.912;2023-02-15T02:54:54;65.50;;;24.48;;
57667;SDS011;43499;52.366;12.912;2023-02-15T02:55:58;75.05;;;24.83;;
57667;SDS011;43499;52.366;12.912;2023-02-15T02:57:04;75.38;;;25.48;;
57667;SDS011;43499;52.366;12.912;2023-02-15T02:58:11;71.13;;;24.77;;
57667;SDS011;43499;52.366;12.912;2023-02-15T02:59:20;72.47;;;25.08;;
57667;SDS011;43499;52.366;12.912;2023-02-15T03:00:28;67.22;;;24.88;;
57667;SDS011;43499;52.366;12.912;2023-02-15T03:01:35;81.45;;;25.80;;
57667;SDS011;43499;52.366;12.912;2023-02-15T03:02:41;64.35;;;25.40;;
57667;SDS011;43499;52.366;12.912;2023-02-15T03:03:49;70.10;;;24.65;;
57667;SDS011;43499;52.366;12.912;2023-02-15T03:04:55;73.85;;;24.63;;
57667;SDS011;43499;52.366;12.912;2023-02-15T03:06:08;70.18;;;24.67;;
57667;SDS011;43499;52.366;12.912;2023-02-15T03:07:17;70.97;;;24.45;;
57667;SDS011;43499;52.366;12.912;2023-02-15T03:08:23;68.68;;;24.80;;
57667;SDS011;43499;52.366;12.912;2023-02-15T03:09:34;72.78;;;25.00;;
57667;SDS011;43499;52.366;12.912;2023-02-15T03:10:47;76.30;;;24.42;;
57667;SDS011;43499;52.366;12.912;2023-02-15T03:11:49;63.17;;;23.52;;
57667;SDS011;43499;52.366;12.912;2023-02-15T03:12:51;82.47;;;26.23;;
57667;SDS011;43499;52.366;12.912;2023-02-15T03:13:52;82.00;;;25.42;;
57667;SDS011;43499;52.366;12.912;2023-02-15T03:14:56;80.40;;;25.65;;
57667;SDS011;43499;52.366;12.912;2023-02-15T03:16:01;79.30;;;25.40;;
57667;SDS011;43499;52.366;12.912;2023-02-15T03:17:25;79.57;;;23.98;;
57667;SDS011;43499;52.366;12.912;2023-02-15T03:18:30;80.30;;;25.50;;
57667;SDS011;43499;52.366;12.912;2023-02-15T03:19:36;82.03;;;24.60;;
57667;SDS011;43499;52.366;12.912;2023-02-15T03:20:39;72.82;;;24.27;;
57667;SDS011;43499;52.366;12.912;2023-02-15T03:21:50;73.20;;;25.33;;
57667;SDS011;43499;52.366;12.912;2023-02-15T03:23:04;73.57;;;25.92;;
57667;SDS011;43499;52.366;12.912;2023-02-15T03:24:14;80.13;;;25.52;;
57667;SDS011;43499;52.366;12.912;2023-02-15T03:25:22;72.60;;;25.42;;
57667;SDS011;43499;52.366;12.912;2023-02-15T03:26:32;70.75;;;24.77;;
57667;SDS011;43499;52.366;12.912;2023-02-15T03:27:39;68.88;;;23.80;;
57667;SDS011;43499;52.366;12.912;2023-02-15T03:28:45;70.17;;;24.90;;
57667;SDS011;43499;52.366;12.912;2023-02-15T03:29:50;62.47;;;23.45;;
57667;SDS011;43499;52.366;12.912;2023-02-15T03:30:55;69.22;;;22.75;;
57667;SDS011;43499;52.366;12.912;2023-02-15T03:32:00;61.70;;;23.20;;
57667;SDS011;43499;52.366;12.912;2023-02-15T03:33:03;61.63;;;22.02;;
57667;SDS011;43499;52.366;12.912;2023-02-15T03:34:07;69.97;;;24.95;;
57667;SDS011;43499;52.366;12.912;2023-02-15T03:35:12;70.70;;;25.70;;
57667;SDS011;43499;52.366;12.912;2023-02-15T03:37:43;70.35;;;24.60;;
57667;SDS011;43499;52.366;12.912;2023-02-15T03:39:07;60.75;;;23.13;;
57667;SDS011;43499;52.366;12.912;2023-02-15T03:40:18;63.58;;;22.52;;
57667;SDS011;43499;52.366;12.912;2023-02-15T03:41:44;67.55;;;21.65;;
57667;SDS011;43499;52.366;12.912;2023-02-15T03:42:52;70.88;;;24.17;;
57667;SDS011;43499;52.366;12.912;2023-02-15T03:44:11;60.90;;;22.38;;
57667;SDS011;43499;52.366;12.912;2023-02-15T03:45:18;78.47;;;24.20;;
57667;SDS011;43499;52.366;12.912;2023-02-15T03:46:29;74.38;;;23.98;;
57667;SDS011;43499;52.366;12.912;2023-02-15T03:47:35;69.57;;;24.35;;
57667;SDS011;43499;52.366;12.912;2023-02-15T03:48:40;78.57;;;26.98;;
57667;SDS011;43499;52.366;12.912;2023-02-15T03:49:59;77.88;;;25.83;;
57667;SDS011;43499;52.366;12.912;2023-02-15T03:51:27;66.93;;;25.00;;
57667;SDS011;43499;52.366;12.912;2023-02-15T03:52:34;75.43;;;25.08;;
57667;SDS011;43499;52.366;12.912;2023-02-15T03:53:36;76.82;;;26.08;;
57667;SDS011;43499;52.366;12.912;2023-02-15T03:54:39;71.22;;;25.33;;
57667;SDS011;43499;52.366;12.912;2023-02-15T03:55:47;73.60;;;23.98;;
57667;SDS011;43499;52.366;12.912;2023-02-15T03:56:49;89.30;;;27.40;;
57667;SDS011;43499;52.366;12.912;2023-02-15T03:58:11;69.32;;;24.23;;
57667;SDS011;43499;52.366;12.912;2023-02-15T04:00:53;64.25;;;21.77;;
57667;SDS011;43499;52.366;12.912;2023-02-15T04:02:39;74.18;;;23.63;;
57667;SDS011;43499;52.366;12.912;2023-02-15T04:03:57;83.95;;;26.98;;
57667;SDS011;43499;52.366;12.912;2023-02-15T04:05:03;78.80;;;25.90;;
57667;SDS011;43499;52.366;12.912;2023-02-15T04:06:04;76.15;;;26.08;;
57667;SDS011;43499;52.366;12.912;2023-02-15T04:07:06;79.55;;;26.48;;
57667;SDS011;43499;52.366;12.912;2023-02-15T04:08:09;74.00;;;27.27;;
57667;SDS011;43499;52.366;12.912;2023-02-15T04:09:11;83.40;;;28.73;;
57667;SDS011;43499;52.366;12.912;2023-02-15T04:10:31;75.68;;;26.63;;
57667;SDS011;43499;52.366;12.912;2023-02-15T04:11:50;73.22;;;26.75;;
57667;SDS011;43499;52.366;12.912;2023-02-15T04:12:52;84.05;;;26.83;;
57667;SDS011;43499;52.366;12.912;2023-02-15T04:13:53;85.03;;;29.30;;
57667;SDS011;43499;52.366;12.912;2023-02-15T04:14:57;99.65;;;28.70;;
57667;SDS011;43499;52.366;12.912;2023-02-15T04:16:16;74.20;;;25.23;;
57667;SDS011;43499;52.366;12.912;2023-02-15T04:17:17;81.25;;;26.40;;
57667;SDS011;43499;52.366;12.912;2023-02-15T04:18:18;88.88;;;26.25;;
57667;SDS011;43499;52.366;12.912;2023-02-15T04:19:19;79.97;;;26.88;;
57667;SDS011;43499;52.366;12.912;2023-02-15T04:20:42;87.93;;;24.73;;
57667;SDS011;43499;52.366;12.912;2023-02-15T04:22:03;68.70;;;23.83;;
57667;SDS011;43499;52.366;12.912;2023-02-15T04:23:22;77.57;;;26.27;;
57667;SDS011;43499;52.366;12.912;2023-02-15T04:24:42;67.80;;;23.15;;
57667;SDS011;43499;52.366;12.912;2023-02-15T04:26:05;76.25;;;24.73;;
57667;SDS011;43499;52.366;12.912;2023-02-15T04:27:06;83.15;;;25.88;;
57667;SDS011;43499;52.366;12.912;2023-02-15T04:28:07;97.00;;;27.67;;
57667;SDS011;43499;52.366;12.912;2023-02-15T04:29:08;96.45;;;27.73;;
57667;SDS011;43499;52.366;12.912;2023-02-15T04:30:09;100.28;;;26.85;;
57667;SDS011;43499;52.366;12.912;2023-02-15T04:31:12;104.28;;;27.23;;
57667;SDS011;43499;52.366;12.912;2023-02-15T04:32:13;202.38;;;30.15;;
57667;SDS011;43499;52.366;12.912;2023-02-15T04:33:14;400.00;;;34.65;;
57667;SDS011;43499;52.366;12.912;2023-02-15T04:34:15;445.88;;;34.47;;
57667;SDS011;43499;52.366;12.912;2023-02-15T04:35:17;316.42;;;29.38;;
57667;SDS011;43499;52.366;12.912;2023-02-15T04:36:18;252.35;;;22.38;;
57667;SDS011;43499;52.366;12.912;2023-02-15T04:37:19;293.25;;;31.35;;
57667;SDS011;43499;52.366;12.912;2023-02-15T04:38:20;226.25;;;24.73;;
57667;SDS011;43499;52.366;12.912;2023-02-15T04:39:23;372.40;;;29.02;;
57667;SDS011;43499;52.366;12.912;2023-02-15T04:40:24;334.58;;;27.38;;
57667;SDS011;43499;52.366;12.912;2023-02-15T04:41:25;293.08;;;26.40;;
57667;SDS011;43499;52.366;12.912;2023-02-15T04:42:26;241.35;;;26.58;;
57667;SDS011;43499;52.366;12.912;2023-02-15T04:43:27;449.73;;;33.28;;
57667;SDS011;43499;52.366;12.912;2023-02-15T04:44:28;285.65;;;29.73;;
57667;SDS011;43499;52.366;12.912;2023-02-15T04:45:29;544.28;;;42.17;;
57667;SDS011;43499;52.366;12.912;2023-02-15T04:46:30;299.35;;;32.15;;
57667;SDS011;43499;52.366;12.912;2023-02-15T04:47:31;493.65;;;36.05;;
57667;SDS011;43499;52.366;12.912;2023-02-15T04:48:33;470.77;;;34.72;;
57667;SDS011;43499;52.366;12.912;2023-02-15T04:49:34;368.20;;;32.97;;
57667;SDS011;43499;52.366;12.912;2023-02-15T04:50:35;299.88;;;29.27;;
57667;SDS011;43499;52.366;12.912;2023-02-15T04:51:36;252.88;;;25.58;;
57667;SDS011;43499;52.366;12.912;2023-02-15T04:52:37;466.13;;;34.88;;
57667;SDS011;43499;52.366;12.912;2023-02-15T04:53:38;384.42;;;30.92;;
57667;SDS011;43499;52.366;12.912;2023-02-15T04:54:39;431.75;;;31.98;;
57667;SDS011;43499;52.366;12.912;2023-02-15T04:55:40;548.00;;;38.78;;
57667;SDS011;43499;52.366;12.912;2023-02-15T04:56:41;387.20;;;32.22;;
57667;SDS011;43499;52.366;12.912;2023-02-15T04:57:42;294.13;;;26.73;;
57667;SDS011;43499;52.366;12.912;2023-02-15T04:58:44;314.40;;;26.45;;
57667;SDS011;43499;52.366;12.912;2023-02-15T04:59:45;268.08;;;25.30;;
57667;SDS011;43499;52.366;12.912;2023-02-15T05:00:46;189.85;;;23.77;;
57667;SDS011;43499;52.366;12.912;2023-02-15T05:01:47;240.02;;;28.67;;
57667;SDS011;43499;52.366;12.912;2023-02-15T05:02:48;223.48;;;25.77;;
57667;SDS011;43499;52.366;12.912;2023-02-15T05:03:49;435.70;;;32.42;;
57667;SDS011;43499;52.366;12.912;2023-02-15T05:04:50;229.57;;;26.73;;
57667;SDS011;43499;52.366;12.912;2023-02-15T05:05:51;338.98;;;28.92;;
57667;SDS011;43499;52.366;12.912;2023-02-15T05:06:52;311.02;;;26.02;;
57667;SDS011;43499;52.366;12.912;2023-02-15T05:07:53;344.88;;;27.55;;
57667;SDS011;43499;52.366;12.912;2023-02-15T05:08:54;288.38;;;26.27;;
57667;SDS011;43499;52.366;12.912;2023-02-15T05:09:55;278.00;;;29.70;;
57667;SDS011;43499;52.366;12.912;2023-02-15T05:10:57;255.02;;;25.65;;
57667;SDS011;43499;52.366;12.912;2023-02-15T05:11:58;424.95;;;32.13;;
57667;SDS011;43499;52.366;12.912;2023-02-15T05:12:59;376.00;;;26.08;;
57667;SDS011;43499;52.366;12.912;2023-02-15T05:14:00;325.83;;;28.50;;
57667;SDS011;43499;52.366;12.912;2023-02-15T05:15:01;275.33;;;25.38;;
57667;SDS011;43499;52.366;12.912;2023-02-15T05:16:02;239.95;;;25.23;;
57667;SDS011;43499;52.366;12.912;2023-02-15T05:17:03;292.25;;;23.98;;
57667;SDS011;43499;52.366;12.912;2023-02-15T05:18:05;367.80;;;28.83;;
57667;SDS011;43499;52.366;12.912;2023-02-15T05:19:07;284.38;;;27.23;;
57667;SDS011;43499;52.366;12.912;2023-02-15T05:20:09;144.80;;;25.77;;
57667;SDS011;43499;52.366;12.912;2023-02-15T05:21:10;453.48;;;33.78;;
57667;SDS011;43499;52.366;12.912;2023-02-15T05:22:11;305.13;;;26.85;;
57667;SDS011;43499;52.366;12.912;2023-02-15T05:23:12;398.23;;;32.00;;
57667;SDS011;43499;52.366;12.912;2023-02-15T05:24:13;299.35;;;24.92;;
57667;SDS011;43499;52.366;12.912;2023-02-15T05:25:33;408.60;;;30.58;;
57667;SDS011;43499;52.366;12.912;2023-02-15T05:27:07;214.27;;;22.98;;
57667;SDS011;43499;52.366;12.912;2023-02-15T05:28:29;159.65;;;24.30;;
57667;SDS011;43499;52.366;12.912;2023-02-15T05:29:30;355.10;;;26.95;;
57667;SDS011;43499;52.366;12.912;2023-02-15T05:30:31;216.25;;;28.40;;
57667;SDS011;43499;52.366;12.912;2023-02-15T05:31:33;243.60;;;25.63;;
57667;SDS011;43499;52.366;12.912;2023-02-15T05:32:34;98.57;;;23.38;;
57667;SDS011;43499;52.366;12.912;2023-02-15T05:33:35;157.02;;;26.00;;
57667;SDS011;43499;52.366;12.912;2023-02-15T05:34:37;321.88;;;30.17;;
57667;SDS011;43499;52.366;12.912;2023-02-15T05:35:38;108.63;;;22.48;;
57667;SDS011;43499;52.366;12.912;2023-02-15T05:36:39;152.63;;;25.13;;
57667;SDS011;43499;52.366;12.912;2023-02-15T05:37:40;225.13;;;25.80;;
57667;SDS011;43499;52.366;12.912;2023-02-15T05:38:41;113.00;;;21.92;;
57667;SDS011;43499;52.366;12.912;2023-02-15T05:39:42;360.65;;;31.50;;
57667;SDS011;43499;52.366;12.912;2023-02-15T05:40:43;114.15;;;25.08;;
57667;SDS011;43499;52.366;12.912;2023-02-15T05:41:44;167.43;;;25.58;;
57667;SDS011;43499;52.366;12.912;2023-02-15T05:42:45;234.35;;;27.50;;
57667;SDS011;43499;52.366;12.912;2023-02-15T05:43:46;94.65;;;22.45;;
57667;SDS011;43499;52.366;12.912;2023-02-15T05:44:47;186.20;;;23.23;;
57667;SDS011;43499;52.366;12.912;2023-02-15T05:45:49;108.20;;;24.45;;
57667;SDS011;43499;52.366;12.912;2023-02-15T05:46:51;129.30;;;22.20;;
57667;SDS011;43499;52.366;12.912;2023-02-15T05:47:52;291.67;;;26.98;;
57667;SDS011;43499;52.366;12.912;2023-02-15T05:48:53;220.85;;;25.88;;
57667;SDS011;43499;52.366;12.912;2023-02-15T05:49:54;121.57;;;24.55;;
57667;SDS011;43499;52.366;12.912;2023-02-15T05:51:03;186.73;;;23.52;;
57667;SDS011;43499;52.366;12.912;2023-02-15T05:52:08;240.00;;;25.30;;
57667;SDS011;43499;52.366;12.912;2023-02-15T05:53:09;150.63;;;22.90;;
57667;SDS011;43499;52.366;12.912;2023-02-15T05:54:10;89.13;;;21.63;;
57667;SDS011;43499;52.366;12.912;2023-02-15T05:55:12;465.88;;;35.28;;
57667;SDS011;43499;52.366;12.912;2023-02-15T05:56:13;269.98;;;27.42;;
57667;SDS011;43499;52.366;12.912;2023-02-15T05:57:14;244.35;;;24.33;;
57667;SDS011;43499;52.366;12.912;2023-02-15T05:58:15;172.00;;;22.85;;
57667;SDS011;43499;52.366;12.912;2023-02-15T05:59:16;163.30;;;24.35;;
57667;SDS011;43499;52.366;12.912;2023-02-15T06:00:17;85.47;;;21.33;;
57667;SDS011;43499;52.366;12.912;2023-02-15T06:01:18;197.27;;;25.20;;
57667;SDS011;43499;52.366;12.912;2023-02-15T06:02:21;207.52;;;26.52;;
57667;SDS011;43499;52.366;12.912;2023-02-15T06:03:23;182.85;;;25.35;;
57667;SDS011;43499;52.366;12.912;2023-02-15T06:04:26;144.45;;;23.27;;
57667;SDS011;43499;52.366;12.912;2023-02-15T06:05:27;91.60;;;24.17;;
57667;SDS011;43499;52.366;12.912;2023-02-15T06:06:28;88.63;;;21.08;;
57667;SDS011;43499;52.366;12.912;2023-02-15T06:07:29;125.95;;;23.85;;
57667;SDS011;43499;52.366;12.912;2023-02-15T06:08:33;172.07;;;24.30;;
57667;SDS011;43499;52.366;12.912;2023-02-15T06:09:36;237.68;;;25.33;;
57667;SDS011;43499;52.366;12.912;2023-02-15T06:10:37;292.00;;;31.23;;
57667;SDS011;43499;52.366;12.912;2023-02-15T06:11:38;92.00;;;23.63;;
57667;SDS011;43499;52.366;12.912;2023-02-15T06:12:39;90.20;;;21.88;;
57667;SDS011;43499;52.366;12.912;2023-02-15T06:13:40;149.70;;;22.33;;
57667;SDS011;43499;52.366;12.912;2023-02-15T06:14:41;117.47;;;24.38;;
57667;SDS011;43499;52.366;12.912;2023-02-15T06:15:42;184.07;;;25.73;;
57667;SDS011;43499;52.366;12.912;2023-02-15T06:16:43;228.18;;;28.70;;
57667;SDS011;43499;52.366;12.912;2023-02-15T06:17:44;183.00;;;24.00;;
57667;SDS011;43499;52.366;12.912;2023-02-15T06:18:45;134.38;;;23.23;;
57667;SDS011;43499;52.366;12.912;2023-02-15T06:19:46;204.95;;;23.05;;
57667;SDS011;43499;52.366;12.912;2023-02-15T06:20:48;145.02;;;23.20;;
57667;SDS011;43499;52.366;12.912;2023-02-15T06:21:49;165.48;;;25.30;;
57667;SDS011;43499;52.366;12.912;2023-02-15T06:22:50;136.18;;;23.20;;
57667;SDS011;43499;52.366;12.912;2023-02-15T06:23:51;162.23;;;24.40;;
57667;SDS011;43499;52.366;12.912;2023-02-15T06:24:52;141.10;;;22.08;;
57667;SDS011;43499;52.366;12.912;2023-02-15T06:25:53;121.07;;;22.63;;
57667;SDS011;43499;52.366;12.912;2023-02-15T06:26:54;138.25;;;24.20;;
57667;SDS011;43499;52.366;12.912;2023-02-15T06:27:55;145.43;;;23.13;;
57667;SDS011;43499;52.366;12.912;2023-02-15T06:28:56;213.88;;;27.33;;
57667;SDS011;43499;52.366;12.912;2023-02-15T06:29:57;118.65;;;20.48;;
57667;SDS011;43499;52.366;12.912;2023-02-15T06:30:59;145.90;;;25.13;;
57667;SDS011;43499;52.366;12.912;2023-02-15T06:32:01;141.82;;;24.25;;
57667;SDS011;43499;52.366;12.912;2023-02-15T06:33:02;292.63;;;28.30;;
57667;SDS011;43499;52.366;12.912;2023-02-15T06:34:03;149.90;;;23.85;;
57667;SDS011;43499;52.366;12.912;2023-02-15T06:35:04;123.25;;;23.88;;
57667;SDS011;43499;52.366;12.912;2023-02-15T06:36:05;196.02;;;24.83;;
57667;SDS011;43499;52.366;12.912;2023-02-15T06:37:06;67.13;;;20.15;;